PWSweather.com
Personal Weather Stations
Station Observations
CALONGE
CalongeES 17251

CalongeES 17251

Lat: 41.85972222, Lon: 3.077777778

Elevation: 16

Station Type: Oregon WMR928N

www.calonge-meteoweb.com

High Low Average
Temperature 67.3°F19.6°C 41.7°F5.4°C 53.5°F11.9°C
Dew Point 52.1°F11.2°C 39.8°F4.3°C 45.0°F7.2°C
Winds 11.4 mph 18.3 kmh Calm Calm 4.0 mph SSE6.4 kmh SSE
Wind Gusts 19.0 mph30.6 kmh -- 7.0 mph11.3 kmh
Humidity 98% 47% 76%
Pressure 30.24 in1024.0 mb 29.95 in1014.2 mb -
Precipitation 0.00 in0.0 mm - -
Hour Temp Dew Point Humidity Winds Wind Gusts Pressure Precip Precip Rate Daily Precip Total
12:00 AM 45.9°F7.7°C 41.3°F5.2°C 84% Calm Calm 7.0 mph11.3 kmh 30.24 in1024.0 mb 0.00 in0.0 mm 0.00 in0.0 mm 0.00 in0.0 mm
12:15 AM 45.7°F7.6°C 41.7°F5.4°C 86% Calm Calm -- 30.24 in1024.0 mb 0.00 in0.0 mm 0.00 in0.0 mm 0.00 in0.0 mm
12:30 AM 45.0°F7.2°C 41.0°F5.0°C 86% 2.9 mph W4.7 kmh W 6.4 mph10.3 kmh 30.24 in1024.0 mb 0.00 in0.0 mm 0.00 in0.0 mm 0.00 in0.0 mm
12:45 AM 45.0°F7.2°C 41.3°F5.2°C 87% 5.3 mph W8.5 kmh W 7.0 mph11.3 kmh 30.24 in1024.0 mb 0.00 in0.0 mm 0.00 in0.0 mm 0.00 in0.0 mm
01:00 AM 44.8°F7.1°C 40.8°F4.9°C 86% 5.3 mph WNW8.5 kmh WNW 7.6 mph12.2 kmh 30.24 in1024.0 mb 0.00 in0.0 mm 0.00 in0.0 mm 0.00 in0.0 mm
01:15 AM 44.6°F7.0°C 40.7°F4.8°C 86% Calm Calm 7.0 mph11.3 kmh 30.24 in1024.0 mb 0.00 in0.0 mm 0.00 in0.0 mm 0.00 in0.0 mm
01:30 AM 44.4°F6.9°C 40.8°F4.9°C 87% 4.1 mph W6.6 kmh W 6.4 mph10.3 kmh 30.24 in1024.0 mb 0.00 in0.0 mm 0.00 in0.0 mm 0.00 in0.0 mm
01:45 AM 43.9°F6.6°C 40.3°F4.6°C 87% 4.7 mph W7.6 kmh W 7.0 mph11.3 kmh 30.24 in1024.0 mb 0.00 in0.0 mm 0.00 in0.0 mm 0.00 in0.0 mm
02:00 AM 43.7°F6.5°C 40.4°F4.7°C 88% 7.0 mph WNW11.3 kmh WNW 7.6 mph12.2 kmh 30.24 in1024.0 mb 0.00 in0.0 mm 0.00 in0.0 mm 0.00 in0.0 mm
02:15 AM 43.2°F6.2°C 39.8°F4.3°C 88% 4.7 mph W7.6 kmh W 5.3 mph8.5 kmh 30.24 in1024.0 mb 0.00 in0.0 mm 0.00 in0.0 mm 0.00 in0.0 mm
02:30 AM 43.0°F6.1°C 40.2°F4.6°C 90% 6.4 mph WNW10.3 kmh WNW 10.0 mph16.1 kmh 30.24 in1024.0 mb 0.00 in0.0 mm 0.00 in0.0 mm 0.00 in0.0 mm
02:45 AM 43.5°F6.4°C 41.1°F5.1°C 91% 7.0 mph WNW11.3 kmh WNW 8.2 mph13.2 kmh 30.24 in1024.0 mb 0.00 in0.0 mm 0.00 in0.0 mm 0.00 in0.0 mm
03:00 AM 43.3°F6.3°C 40.3°F4.6°C 89% 4.7 mph W7.6 kmh W 6.4 mph10.3 kmh 30.21 in1023.0 mb 0.00 in0.0 mm 0.00 in0.0 mm 0.00 in0.0 mm
03:15 AM 42.8°F6.0°C 40.1°F4.5°C 90% 4.7 mph W7.6 kmh W 7.0 mph11.3 kmh 30.21 in1023.0 mb 0.00 in0.0 mm 0.00 in0.0 mm 0.00 in0.0 mm
03:30 AM 42.6°F5.9°C 40.2°F4.6°C 91% 4.7 mph WNW7.6 kmh WNW 8.2 mph13.2 kmh 30.21 in1023.0 mb 0.00 in0.0 mm 0.00 in0.0 mm 0.00 in0.0 mm
03:45 AM 42.8°F6.0°C 40.6°F4.8°C 92% 5.9 mph WNW9.5 kmh WNW 8.2 mph13.2 kmh 30.21 in1023.0 mb 0.00 in0.0 mm 0.00 in0.0 mm 0.00 in0.0 mm
04:00 AM 42.4°F5.8°C 40.3°F4.6°C 92% 5.3 mph W8.5 kmh W 7.0 mph11.3 kmh 30.21 in1023.0 mb 0.00 in0.0 mm 0.00 in0.0 mm 0.00 in0.0 mm
04:15 AM 42.3°F5.7°C 40.4°F4.7°C 93% 6.4 mph WNW10.3 kmh WNW 8.2 mph13.2 kmh 30.21 in1023.0 mb 0.00 in0.0 mm 0.00 in0.0 mm 0.00 in0.0 mm
04:30 AM 42.1°F5.6°C 40.2°F4.6°C 93% 5.3 mph WNW8.5 kmh WNW 7.0 mph11.3 kmh 30.21 in1023.0 mb 0.00 in0.0 mm 0.00 in0.0 mm 0.00 in0.0 mm
04:45 AM 42.1°F5.6°C 40.5°F4.7°C 94% 5.9 mph W9.5 kmh W 7.0 mph11.3 kmh 30.21 in1023.0 mb 0.00 in0.0 mm 0.00 in0.0 mm 0.00 in0.0 mm
05:00 AM 42.1°F5.6°C 40.8°F4.9°C 95% 5.9 mph WNW9.5 kmh WNW 7.6 mph12.2 kmh 30.21 in1023.0 mb 0.00 in0.0 mm 0.00 in0.0 mm 0.00 in0.0 mm
05:15 AM 42.4°F5.8°C 41.4°F5.2°C 96% 6.4 mph WNW10.3 kmh WNW 8.2 mph13.2 kmh 30.21 in1023.0 mb 0.00 in0.0 mm 0.00 in0.0 mm 0.00 in0.0 mm
05:30 AM 42.4°F5.8°C 41.4°F5.2°C 96% 5.9 mph W9.5 kmh W 7.0 mph11.3 kmh 30.21 in1023.0 mb 0.00 in0.0 mm 0.00 in0.0 mm 0.00 in0.0 mm
05:45 AM 42.3°F5.7°C 40.9°F4.9°C 95% 6.4 mph WNW10.3 kmh WNW 7.6 mph12.2 kmh 30.21 in1023.0 mb 0.00 in0.0 mm 0.00 in0.0 mm 0.00 in0.0 mm
06:00 AM 42.8°F6.0°C 41.7°F5.4°C 96% 6.4 mph W10.3 kmh W 8.2 mph13.2 kmh 30.21 in1023.0 mb 0.00 in0.0 mm 0.00 in0.0 mm 0.00 in0.0 mm
06:15 AM 42.8°F6.0°C 41.7°F5.4°C 96% 7.0 mph WNW11.3 kmh WNW 8.2 mph13.2 kmh 30.21 in1023.0 mb 0.00 in0.0 mm 0.00 in0.0 mm 0.00 in0.0 mm
06:30 AM 42.8°F6.0°C 41.7°F5.4°C 96% 5.3 mph W8.5 kmh W 7.0 mph11.3 kmh 30.21 in1023.0 mb 0.00 in0.0 mm 0.00 in0.0 mm 0.00 in0.0 mm
06:45 AM 42.3°F5.7°C 41.2°F5.1°C 96% 3.5 mph WNW5.6 kmh WNW 5.3 mph8.5 kmh 30.21 in1023.0 mb 0.00 in0.0 mm 0.00 in0.0 mm 0.00 in0.0 mm
07:00 AM 42.1°F5.6°C 41.0°F5.0°C 96% 3.5 mph W5.6 kmh W 5.9 mph9.5 kmh 30.21 in1023.0 mb 0.00 in0.0 mm 0.00 in0.0 mm 0.00 in0.0 mm
07:15 AM 41.9°F5.5°C 40.8°F4.9°C 96% 3.5 mph WNW5.6 kmh WNW 6.4 mph10.3 kmh 30.21 in1023.0 mb 0.00 in0.0 mm 0.00 in0.0 mm 0.00 in0.0 mm
07:30 AM 41.7°F5.4°C 40.9°F4.9°C 97% 4.1 mph W6.6 kmh W 5.9 mph9.5 kmh 30.21 in1023.0 mb 0.00 in0.0 mm 0.00 in0.0 mm 0.00 in0.0 mm
07:45 AM 42.4°F5.8°C 41.9°F5.5°C 98% 5.3 mph W8.5 kmh W 7.0 mph11.3 kmh 30.21 in1023.0 mb 0.00 in0.0 mm 0.00 in0.0 mm 0.00 in0.0 mm
08:00 AM 43.9°F6.6°C 43.4°F6.3°C 98% 4.7 mph WNW7.6 kmh WNW 7.6 mph12.2 kmh 30.21 in1023.0 mb 0.00 in0.0 mm 0.00 in0.0 mm 0.00 in0.0 mm
08:15 AM 45.5°F7.5°C 45.0°F7.2°C 98% 4.1 mph W6.6 kmh W 6.4 mph10.3 kmh 30.18 in1022.0 mb 0.00 in0.0 mm 0.00 in0.0 mm 0.00 in0.0 mm
08:30 AM 46.8°F8.2°C 46.0°F7.8°C 97% 4.1 mph W6.6 kmh W 4.7 mph7.6 kmh 30.18 in1022.0 mb 0.00 in0.0 mm 0.00 in0.0 mm 0.00 in0.0 mm
08:45 AM 48.4°F9.1°C 47.3°F8.5°C 96% Calm Calm -- 30.18 in1022.0 mb 0.00 in0.0 mm 0.00 in0.0 mm 0.00 in0.0 mm
09:00 AM 50.5°F10.3°C 48.6°F9.2°C 93% Calm Calm -- 30.18 in1022.0 mb 0.00 in0.0 mm 0.00 in0.0 mm 0.00 in0.0 mm
09:15 AM 52.2°F11.2°C 49.9°F9.9°C 92% Calm Calm -- 30.18 in1022.0 mb 0.00 in0.0 mm 0.00 in0.0 mm 0.00 in0.0 mm
09:30 AM 55.2°F12.9°C 51.7°F10.9°C 88% Calm Calm -- 30.18 in1022.0 mb 0.00 in0.0 mm 0.00 in0.0 mm 0.00 in0.0 mm
09:45 AM 57.6°F14.2°C 52.1°F11.2°C 82% Calm Calm -- 30.18 in1022.0 mb 0.00 in0.0 mm 0.00 in0.0 mm 0.00 in0.0 mm
10:00 AM 59.2°F15.1°C 49.8°F9.9°C 71% 4.1 mph SE6.6 kmh SE 6.4 mph10.3 kmh 30.18 in1022.0 mb 0.00 in0.0 mm 0.00 in0.0 mm 0.00 in0.0 mm
10:15 AM 60.6°F15.9°C 49.2°F9.6°C 66% 11.4 mph SSE18.3 kmh SSE 12.6 mph20.3 kmh 30.18 in1022.0 mb 0.00 in0.0 mm 0.00 in0.0 mm 0.00 in0.0 mm
10:30 AM 60.8°F16.0°C 45.9°F7.7°C 58% 7.6 mph S12.2 kmh S 13.8 mph22.2 kmh 30.18 in1022.0 mb 0.00 in0.0 mm 0.00 in0.0 mm 0.00 in0.0 mm
10:45 AM 61.5°F16.4°C 47.1°F8.4°C 59% 7.0 mph SSE11.3 kmh SSE 12.6 mph20.3 kmh 30.15 in1021.0 mb 0.00 in0.0 mm 0.00 in0.0 mm 0.00 in0.0 mm
11:00 AM 62.1°F16.7°C 47.1°F8.4°C 58% 6.4 mph SSE10.3 kmh SSE 12.6 mph20.3 kmh 30.15 in1021.0 mb 0.00 in0.0 mm 0.00 in0.0 mm 0.00 in0.0 mm
11:15 AM 63.1°F17.3°C 47.2°F8.4°C 56% 9.4 mph SE15.1 kmh SE 10.8 mph17.4 kmh 30.15 in1021.0 mb 0.00 in0.0 mm 0.00 in0.0 mm 0.00 in0.0 mm
11:30 AM 64.2°F17.9°C 47.7°F8.7°C 55% 7.6 mph SE12.2 kmh SE 10.8 mph17.4 kmh 30.15 in1021.0 mb 0.00 in0.0 mm 0.00 in0.0 mm 0.00 in0.0 mm
11:45 AM 65.3°F18.5°C 47.2°F8.4°C 52% 10.0 mph SE16.1 kmh SE 13.2 mph21.2 kmh 30.15 in1021.0 mb 0.00 in0.0 mm 0.00 in0.0 mm 0.00 in0.0 mm
12:00 PM 65.3°F18.5°C 45.6°F7.6°C 49% 10.0 mph SSE16.1 kmh SSE 14.4 mph23.2 kmh 30.12 in1020.0 mb 0.00 in0.0 mm 0.00 in0.0 mm 0.00 in0.0 mm
12:15 PM 66.0°F18.9°C 46.3°F7.9°C 49% 8.2 mph SSE13.2 kmh SSE 13.8 mph22.2 kmh 30.12 in1020.0 mb 0.00 in0.0 mm 0.00 in0.0 mm 0.00 in0.0 mm
12:30 PM 65.8°F18.8°C 46.1°F7.8°C 49% 8.2 mph SSE13.2 kmh SSE 11.4 mph18.3 kmh 30.12 in1020.0 mb 0.00 in0.0 mm 0.00 in0.0 mm 0.00 in0.0 mm
12:45 PM 66.6°F19.2°C 46.3°F7.9°C 48% 5.3 mph SE8.5 kmh SE 13.2 mph21.2 kmh 30.12 in1020.0 mb 0.00 in0.0 mm 0.00 in0.0 mm 0.00 in0.0 mm
01:00 PM 67.3°F19.6°C 46.4°F8.0°C 47% 8.8 mph SSE14.2 kmh SSE 14.4 mph23.2 kmh 30.12 in1020.0 mb 0.00 in0.0 mm 0.00 in0.0 mm 0.00 in0.0 mm
01:15 PM 67.1°F19.5°C 46.2°F7.9°C 47% 6.4 mph S10.3 kmh S 11.4 mph18.3 kmh 30.09 in1019.0 mb 0.00 in0.0 mm 0.00 in0.0 mm 0.00 in0.0 mm
01:30 PM 67.1°F19.5°C 46.7°F8.2°C 48% 9.4 mph SSE15.1 kmh SSE 13.8 mph22.2 kmh 30.09 in1019.0 mb 0.00 in0.0 mm 0.00 in0.0 mm 0.00 in0.0 mm
01:45 PM 66.4°F19.1°C 46.1°F7.8°C 48% 8.2 mph S13.2 kmh S 14.4 mph23.2 kmh 30.09 in1019.0 mb 0.00 in0.0 mm 0.00 in0.0 mm 0.00 in0.0 mm
02:00 PM 66.2°F19.0°C 47.0°F8.3°C 50% 9.4 mph S15.1 kmh S 13.8 mph22.2 kmh 30.07 in1018.3 mb 0.00 in0.0 mm 0.00 in0.0 mm 0.00 in0.0 mm
02:15 PM 65.8°F18.8°C 45.6°F7.6°C 48% 8.2 mph SSW13.2 kmh SSW 11.4 mph18.3 kmh 30.07 in1018.3 mb 0.00 in0.0 mm 0.00 in0.0 mm 0.00 in0.0 mm
02:30 PM 66.2°F19.0°C 46.5°F8.1°C 49% 8.2 mph S13.2 kmh S 13.8 mph22.2 kmh 30.07 in1018.3 mb 0.00 in0.0 mm 0.00 in0.0 mm 0.00 in0.0 mm
02:45 PM 66.4°F19.1°C 47.2°F8.4°C 50% 7.6 mph SSE12.2 kmh SSE 14.4 mph23.2 kmh 30.07 in1018.3 mb 0.00 in0.0 mm 0.00 in0.0 mm 0.00 in0.0 mm
03:00 PM 66.2°F19.0°C 46.5°F8.1°C 49% 9.4 mph S15.1 kmh S 16.1 mph25.9 kmh 30.07 in1018.3 mb 0.00 in0.0 mm 0.00 in0.0 mm 0.00 in0.0 mm
03:15 PM 66.4°F19.1°C 47.2°F8.4°C 50% 7.6 mph S12.2 kmh S 19.0 mph30.6 kmh 30.04 in1017.3 mb 0.00 in0.0 mm 0.00 in0.0 mm 0.00 in0.0 mm
03:30 PM 66.0°F18.9°C 46.8°F8.2°C 50% 7.0 mph S11.3 kmh S 17.3 mph27.8 kmh 30.04 in1017.3 mb 0.00 in0.0 mm 0.00 in0.0 mm 0.00 in0.0 mm
03:45 PM 65.3°F18.5°C 47.2°F8.4°C 52% 9.4 mph S15.1 kmh S 17.3 mph27.8 kmh 30.04 in1017.3 mb 0.00 in0.0 mm 0.00 in0.0 mm 0.00 in0.0 mm
04:00 PM 65.7°F18.7°C 47.0°F8.3°C 51% 8.8 mph S14.2 kmh S 14.4 mph23.2 kmh 30.04 in1017.3 mb 0.00 in0.0 mm 0.00 in0.0 mm 0.00 in0.0 mm
04:15 PM 65.1°F18.4°C 47.6°F8.7°C 53% 7.0 mph S11.3 kmh S 12.6 mph20.3 kmh 30.04 in1017.3 mb 0.00 in0.0 mm 0.00 in0.0 mm 0.00 in0.0 mm
04:30 PM 64.8°F18.2°C 48.2°F9.0°C 55% 7.6 mph S12.2 kmh S 14.4 mph23.2 kmh 30.04 in1017.3 mb 0.00 in0.0 mm 0.00 in0.0 mm 0.00 in0.0 mm
04:45 PM 64.2°F17.9°C 49.6°F9.8°C 59% 8.2 mph S13.2 kmh S 13.2 mph21.2 kmh 30.01 in1016.3 mb 0.00 in0.0 mm 0.00 in0.0 mm 0.00 in0.0 mm
05:00 PM 63.9°F17.7°C 49.2°F9.6°C 59% 5.9 mph S9.5 kmh S 13.8 mph22.2 kmh 30.01 in1016.3 mb 0.00 in0.0 mm 0.00 in0.0 mm 0.00 in0.0 mm
05:15 PM 63.9°F17.7°C 49.2°F9.6°C 59% 7.6 mph S12.2 kmh S 11.4 mph18.3 kmh 30.01 in1016.3 mb 0.00 in0.0 mm 0.00 in0.0 mm 0.00 in0.0 mm
05:30 PM 63.5°F17.5°C 48.5°F9.2°C 58% 7.6 mph S12.2 kmh S 10.8 mph17.4 kmh 30.01 in1016.3 mb 0.00 in0.0 mm 0.00 in0.0 mm 0.00 in0.0 mm
05:45 PM 63.5°F17.5°C 48.9°F9.4°C 59% Calm Calm -- 30.01 in1016.3 mb 0.00 in0.0 mm 0.00 in0.0 mm 0.00 in0.0 mm
06:00 PM 63.7°F17.6°C 48.6°F9.2°C 58% 3.5 mph SSW5.6 kmh SSW 6.4 mph10.3 kmh 30.01 in1016.3 mb 0.00 in0.0 mm 0.00 in0.0 mm 0.00 in0.0 mm
06:15 PM 63.1°F17.3°C 48.6°F9.2°C 59% Calm Calm 5.3 mph8.5 kmh 30.01 in1016.3 mb 0.00 in0.0 mm 0.00 in0.0 mm 0.00 in0.0 mm
06:30 PM 62.6°F17.0°C 48.5°F9.2°C 60% Calm Calm -- 30.01 in1016.3 mb 0.00 in0.0 mm 0.00 in0.0 mm 0.00 in0.0 mm
06:45 PM 62.1°F16.7°C 48.4°F9.1°C 61% Calm Calm -- 30.01 in1016.3 mb 0.00 in0.0 mm 0.00 in0.0 mm 0.00 in0.0 mm
07:00 PM 61.0°F16.1°C 47.9°F8.8°C 62% Calm Calm -- 30.01 in1016.3 mb 0.00 in0.0 mm 0.00 in0.0 mm 0.00 in0.0 mm
07:15 PM 59.2°F15.1°C 47.8°F8.8°C 66% Calm Calm -- 30.01 in1016.3 mb 0.00 in0.0 mm 0.00 in0.0 mm 0.00 in0.0 mm
07:30 PM 57.6°F14.2°C 47.8°F8.8°C 70% Calm Calm -- 30.01 in1016.3 mb 0.00 in0.0 mm 0.00 in0.0 mm 0.00 in0.0 mm
07:45 PM 56.7°F13.7°C 47.4°F8.6°C 71% Calm Calm -- 30.01 in1016.3 mb 0.00 in0.0 mm 0.00 in0.0 mm 0.00 in0.0 mm
08:00 PM 55.4°F13.0°C 47.2°F8.4°C 74% Calm Calm -- 30.01 in1016.3 mb 0.00 in0.0 mm 0.00 in0.0 mm 0.00 in0.0 mm
08:15 PM 54.5°F12.5°C 46.4°F8.0°C 74% Calm Calm -- 30.01 in1016.3 mb 0.00 in0.0 mm 0.00 in0.0 mm 0.00 in0.0 mm
08:30 PM 53.1°F11.7°C 46.4°F8.0°C 78% Calm Calm -- 30.01 in1016.3 mb 0.00 in0.0 mm 0.00 in0.0 mm 0.00 in0.0 mm
08:45 PM 52.2°F11.2°C 45.5°F7.5°C 78% Calm Calm -- 30.01 in1016.3 mb 0.00 in0.0 mm 0.00 in0.0 mm 0.00 in0.0 mm
09:00 PM 51.3°F10.7°C 45.6°F7.6°C 81% Calm Calm -- 30.01 in1016.3 mb 0.00 in0.0 mm 0.00 in0.0 mm 0.00 in0.0 mm
09:15 PM 50.2°F10.1°C 45.5°F7.5°C 84% Calm Calm -- 29.98 in1015.2 mb 0.00 in0.0 mm 0.00 in0.0 mm 0.00 in0.0 mm
09:30 PM 49.8°F9.9°C 45.5°F7.5°C 85% Calm Calm -- 29.98 in1015.2 mb 0.00 in0.0 mm 0.00 in0.0 mm 0.00 in0.0 mm
09:45 PM 49.1°F9.5°C 45.1°F7.3°C 86% Calm Calm -- 29.98 in1015.2 mb 0.00 in0.0 mm 0.00 in0.0 mm 0.00 in0.0 mm
10:00 PM 48.7°F9.3°C 45.6°F7.6°C 89% Calm Calm -- 29.98 in1015.2 mb 0.00 in0.0 mm 0.00 in0.0 mm 0.00 in0.0 mm
10:15 PM 48.4°F9.1°C 45.3°F7.4°C 89% Calm Calm -- 29.98 in1015.2 mb 0.00 in0.0 mm 0.00 in0.0 mm 0.00 in0.0 mm
10:30 PM 48.4°F9.1°C 45.9°F7.7°C 91% Calm Calm -- 29.98 in1015.2 mb 0.00 in0.0 mm 0.00 in0.0 mm 0.00 in0.0 mm
10:45 PM 48.0°F8.9°C 45.5°F7.5°C 91% Calm Calm -- 29.98 in1015.2 mb 0.00 in0.0 mm 0.00 in0.0 mm 0.00 in0.0 mm
11:00 PM 47.7°F8.7°C 45.2°F7.3°C 91% Calm Calm -- 29.98 in1015.2 mb 0.00 in0.0 mm 0.00 in0.0 mm 0.00 in0.0 mm
11:15 PM 47.1°F8.4°C 44.9°F7.2°C 92% Calm Calm -- 29.98 in1015.2 mb 0.00 in0.0 mm 0.00 in0.0 mm 0.00 in0.0 mm
11:30 PM 46.9°F8.3°C 45.0°F7.2°C 93% Calm Calm -- 29.98 in1015.2 mb 0.00 in0.0 mm 0.00 in0.0 mm 0.00 in0.0 mm
11:45 PM 46.8°F8.2°C 45.1°F7.3°C 94% Calm Calm -- 29.95 in1014.2 mb 0.00 in0.0 mm 0.00 in0.0 mm 0.00 in0.0 mm